createdAt,value
2018-12-27T00:02:17.466Z,19.40
2018-12-27T00:04:56.590Z,15.90
2018-12-27T00:07:27.918Z,16.73
2018-12-27T00:09:58.950Z,15.07
2018-12-27T00:12:29.855Z,18.00
2018-12-27T00:15:04.319Z,19.07
2018-12-27T00:17:36.849Z,17.00
2018-12-27T00:20:08.812Z,16.20
2018-12-27T00:22:45.840Z,17.60
2018-12-27T00:25:20.468Z,15.07
2018-12-27T00:27:52.713Z,16.27
2018-12-27T00:30:28.071Z,16.07
2018-12-27T00:33:05.225Z,15.60
2018-12-27T00:35:36.156Z,14.37
2018-12-27T00:38:12.560Z,14.07
2018-12-27T00:40:47.541Z,15.40
2018-12-27T00:43:37.288Z,14.53
2018-12-27T00:46:08.411Z,14.03
2018-12-27T00:48:41.530Z,14.43
2018-12-27T00:51:14.579Z,16.50
2018-12-27T00:53:47.317Z,18.00
2018-12-27T00:56:18.343Z,14.50
2018-12-27T00:58:51.429Z,12.90
2018-12-27T01:01:25.886Z,16.43
2018-12-27T01:03:57.860Z,17.70
2018-12-27T01:06:28.588Z,16.43
2018-12-27T01:08:59.386Z,15.03
2018-12-27T01:11:30.117Z,14.00
2018-12-27T01:14:02.289Z,12.43
2018-12-27T01:16:36.131Z,16.50
2018-12-27T01:19:09.269Z,15.60
2018-12-27T01:21:48.507Z,16.27
2018-12-27T01:24:20.851Z,14.77
2018-12-27T01:26:52.310Z,14.33
2018-12-27T01:29:44.880Z,15.53
2018-12-27T01:32:28.152Z,12.43
2018-12-27T01:35:01.364Z,15.23
2018-12-27T01:37:47.129Z,13.43
2018-12-27T01:40:19.096Z,13.53
2018-12-27T01:42:51.215Z,12.80
2018-12-27T01:45:24.410Z,13.13
2018-12-27T01:47:55.189Z,13.67
2018-12-27T01:50:28.582Z,13.83
2018-12-27T01:53:01.208Z,14.07
2018-12-27T01:55:33.749Z,12.53
2018-12-27T01:58:07.351Z,16.53
2018-12-27T02:00:50.537Z,11.53
2018-12-27T02:03:26.594Z,16.20
2018-12-27T02:05:59.789Z,14.90
2018-12-27T02:08:30.700Z,14.10
2018-12-27T02:11:03.588Z,12.73
2018-12-27T02:13:34.668Z,14.77
2018-12-27T02:16:08.297Z,12.57
2018-12-27T02:18:44.736Z,12.30
2018-12-27T02:21:18.928Z,13.40
2018-12-27T02:23:50.961Z,14.27
2018-12-27T02:26:26.084Z,16.67
2018-12-27T02:28:59.604Z,13.33
2018-12-27T02:31:33.430Z,14.10
2018-12-27T02:34:05.634Z,13.93
2018-12-27T02:36:38.555Z,13.77
2018-12-27T02:39:09.582Z,11.80
2018-12-27T02:41:44.398Z,14.90
2018-12-27T02:44:17.859Z,12.70
2018-12-27T02:46:49.748Z,12.37
2018-12-27T02:49:21.478Z,16.07
2018-12-27T02:51:55.120Z,13.13
2018-12-27T02:54:27.290Z,10.83
2018-12-27T02:56:57.979Z,12.80
2018-12-27T02:59:30.713Z,12.87
2018-12-27T03:02:02.565Z,15.53
2018-12-27T03:04:47.676Z,14.77
2018-12-27T03:07:20.680Z,12.60
2018-12-27T03:09:55.427Z,11.07
2018-12-27T03:12:26.172Z,15.27
2018-12-27T03:14:58.942Z,12.50
2018-12-27T03:17:30.130Z,13.03
2018-12-27T03:20:03.376Z,12.37
2018-12-27T03:22:35.734Z,11.63
2018-12-27T03:25:07.759Z,12.03
2018-12-27T03:27:42.070Z,13.07
2018-12-27T03:30:15.684Z,14.07
2018-12-27T03:32:51.489Z,12.50
2018-12-27T03:35:22.212Z,11.73
2018-12-27T03:37:54.770Z,10.90
2018-12-27T03:40:29.483Z,10.93
2018-12-27T03:43:04.180Z,10.03
2018-12-27T03:45:36.977Z,10.40
2018-12-27T03:48:07.811Z,13.40
2018-12-27T03:50:43.744Z,10.43
2018-12-27T03:53:27.417Z,10.93
2018-12-27T03:55:58.960Z,13.30
2018-12-27T03:58:31.783Z,11.00
2018-12-27T04:01:05.868Z,9.40
2018-12-27T04:03:39.785Z,9.93
2018-12-27T04:06:11.674Z,9.87
2018-12-27T04:08:47.342Z,10.63
2018-12-27T04:11:19.323Z,11.33
2018-12-27T04:14:09.285Z,11.50
2018-12-27T04:16:47.245Z,10.47
2018-12-27T04:19:17.822Z,10.63
2018-12-27T04:21:48.231Z,11.20
2018-12-27T04:24:22.310Z,11.87
2018-12-27T04:26:55.850Z,12.90
2018-12-27T04:29:28.730Z,9.70
2018-12-27T04:32:01.507Z,11.83
2018-12-27T04:34:34.170Z,12.23
2018-12-27T04:37:04.741Z,13.20
2018-12-27T04:39:37.933Z,10.57
2018-12-27T04:42:10.261Z,11.30
2018-12-27T04:44:55.173Z,11.97
2018-12-27T04:47:31.061Z,13.07
2018-12-27T04:50:02.974Z,11.37
2018-12-27T04:52:38.972Z,10.80
2018-12-27T04:55:11.403Z,10.23
2018-12-27T04:57:46.357Z,11.00
2018-12-27T05:00:18.930Z,10.93
2018-12-27T05:02:52.743Z,9.73
2018-12-27T05:05:37.631Z,10.10
2018-12-27T05:08:10.850Z,10.00
2018-12-27T05:10:47.407Z,11.60
2018-12-27T05:13:21.602Z,9.03
2018-12-27T05:15:55.715Z,10.50
2018-12-27T05:18:31.896Z,10.80
2018-12-27T05:21:04.296Z,11.97
2018-12-27T05:23:35.108Z,10.20
2018-12-27T05:26:05.532Z,9.27
2018-12-27T05:28:36.778Z,10.77
2018-12-27T05:31:07.260Z,8.97
2018-12-27T05:33:38.433Z,11.53
2018-12-27T05:36:11.386Z,11.27
2018-12-27T05:38:54.359Z,8.27
2018-12-27T05:41:24.992Z,12.00
2018-12-27T05:43:55.445Z,6.63
2018-12-27T05:46:26.262Z,7.80
2018-12-27T05:48:57.596Z,8.67
2018-12-27T05:51:28.070Z,8.50
2018-12-27T05:53:58.765Z,8.73
2018-12-27T05:56:29.266Z,6.63
2018-12-27T05:59:03.843Z,6.20
2018-12-27T06:01:38.949Z,5.47
2018-12-27T06:04:11.485Z,5.80
2018-12-27T06:06:44.320Z,6.00
2018-12-27T06:09:24.355Z,5.20
2018-12-27T06:11:56.382Z,6.10
2018-12-27T06:14:31.356Z,4.90
2018-12-27T06:17:03.734Z,5.50
2018-12-27T06:19:36.197Z,6.17
2018-12-27T06:22:06.820Z,4.17
2018-12-27T06:24:37.384Z,3.70
2018-12-27T06:27:08.523Z,4.47
2018-12-27T06:29:42.739Z,3.40
2018-12-27T06:32:15.734Z,3.30
2018-12-27T06:34:47.484Z,3.40
2018-12-27T06:37:18.369Z,3.70
2018-12-27T06:39:50.546Z,6.30
2018-12-27T06:42:22.098Z,3.77
2018-12-27T06:44:54.645Z,4.30
2018-12-27T06:47:26.488Z,3.17
2018-12-27T06:49:59.443Z,2.33
2018-12-27T06:52:30.145Z,2.83
2018-12-27T06:55:00.764Z,4.00
2018-12-27T06:57:31.731Z,3.90
2018-12-27T07:00:02.530Z,3.47
2018-12-27T07:02:49.220Z,3.07
2018-12-27T07:05:26.380Z,4.07
2018-12-27T07:08:12.789Z,2.63
2018-12-27T07:10:46.196Z,3.10
2018-12-27T07:13:19.501Z,3.87
2018-12-27T07:15:51.816Z,4.27
2018-12-27T07:18:40.418Z,5.10
2018-12-27T07:21:11.667Z,4.80
2018-12-27T07:23:47.996Z,5.47
2018-12-27T07:26:31.413Z,2.70
2018-12-27T07:29:03.751Z,3.40
2018-12-27T07:31:35.588Z,4.07
2018-12-27T07:34:11.582Z,6.90
2018-12-27T07:36:48.035Z,3.90
2018-12-27T07:39:25.838Z,3.73
2018-12-27T07:41:56.622Z,7.87
2018-12-27T07:44:28.690Z,5.57
2018-12-27T07:47:03.734Z,7.37
2018-12-27T07:49:36.551Z,6.27
2018-12-27T07:52:09.785Z,2.90
2018-12-27T07:54:40.823Z,3.03
2018-12-27T07:57:11.931Z,3.87
2018-12-27T07:59:44.845Z,5.23
2018-12-27T08:02:18.762Z,2.70
2018-12-27T08:04:50.019Z,12.10
2018-12-27T08:07:20.875Z,4.80
2018-12-27T08:10:04.992Z,2.70
2018-12-27T08:12:37.505Z,4.47
2018-12-27T08:15:08.373Z,3.37
2018-12-27T08:17:38.879Z,2.73
2018-12-27T08:20:10.530Z,5.30
2018-12-27T08:22:43.398Z,3.43
2018-12-27T08:25:16.053Z,12.00
2018-12-27T08:27:46.973Z,3.33
2018-12-27T08:30:18.963Z,2.90
2018-12-27T08:32:57.615Z,3.63
2018-12-27T08:35:31.747Z,3.57
2018-12-27T08:38:04.802Z,5.30
2018-12-27T08:40:37.845Z,3.07
2018-12-27T08:43:08.917Z,2.90
2018-12-27T08:45:40.972Z,2.70
2018-12-27T08:48:11.828Z,3.17
2018-12-27T08:51:00.115Z,3.83
2018-12-27T08:53:31.962Z,2.73
2018-12-27T08:56:03.745Z,3.57
2018-12-27T08:58:38.227Z,2.93
2018-12-27T09:01:17.947Z,3.07
2018-12-27T09:03:50.008Z,2.63
2018-12-27T09:06:21.110Z,5.27
2018-12-27T09:08:51.892Z,2.80
2018-12-27T09:11:22.773Z,2.50
2018-12-27T09:13:53.591Z,5.23
2018-12-27T09:16:24.061Z,3.47
2018-12-27T09:18:55.179Z,4.00
2018-12-27T09:21:26.196Z,5.43
2018-12-27T09:24:03.027Z,2.87
2018-12-27T09:26:35.364Z,2.57
2018-12-27T09:29:08.395Z,2.40
2018-12-27T09:31:40.093Z,4.40
2018-12-27T09:34:11.496Z,2.90
2018-12-27T09:36:50.408Z,9.37
2018-12-27T09:39:24.471Z,6.57
2018-12-27T09:41:56.235Z,3.10
2018-12-27T09:44:31.616Z,3.40
2018-12-27T09:47:02.102Z,3.63
2018-12-27T09:49:33.090Z,3.27
2018-12-27T09:52:04.196Z,3.23
2018-12-27T09:54:38.626Z,4.97
2018-12-27T09:57:11.666Z,3.63
2018-12-27T09:59:50.824Z,3.87
2018-12-27T10:02:21.614Z,6.80
2018-12-27T10:04:52.190Z,5.03
2018-12-27T10:07:22.861Z,5.37
2018-12-27T10:09:53.541Z,2.50
2018-12-27T10:12:24.306Z,6.90
2018-12-27T10:14:54.974Z,3.90
2018-12-27T10:17:40.272Z,3.23
2018-12-27T10:20:11.900Z,6.50
2018-12-27T10:22:42.640Z,2.50
2018-12-27T10:25:13.175Z,3.10
2018-12-27T10:27:46.196Z,2.53
2018-12-27T10:30:19.589Z,2.93
2018-12-27T10:32:51.308Z,4.23
2018-12-27T10:35:25.288Z,3.53
2018-12-27T10:38:16.586Z,2.50
2018-12-27T10:40:49.741Z,2.47
2018-12-27T10:43:22.801Z,3.13
2018-12-27T10:45:59.305Z,3.00
2018-12-27T10:48:32.025Z,3.33
2018-12-27T10:51:18.494Z,3.53
2018-12-27T10:53:49.227Z,2.57
2018-12-27T10:56:20.831Z,5.10
2018-12-27T10:59:11.682Z,2.43
2018-12-27T11:01:42.443Z,11.30
2018-12-27T11:04:21.778Z,3.00
2018-12-27T11:06:57.799Z,6.87
2018-12-27T11:09:28.572Z,2.13
2018-12-27T11:11:59.430Z,4.80
2018-12-27T11:14:31.491Z,4.50
2018-12-27T11:17:05.232Z,6.43
2018-12-27T11:19:37.634Z,2.70
2018-12-27T11:22:09.645Z,4.90
2018-12-27T11:24:42.605Z,5.50
2018-12-27T11:27:13.046Z,2.77
2018-12-27T11:29:44.400Z,3.67
2018-12-27T11:32:16.510Z,3.63
2018-12-27T11:34:51.078Z,2.27
2018-12-27T11:37:23.889Z,4.23
2018-12-27T11:39:58.345Z,4.47
2018-12-27T11:42:31.425Z,4.00
2018-12-27T11:45:02.994Z,7.20
2018-12-27T11:47:33.831Z,12.03
2018-12-27T11:50:04.509Z,15.63
2018-12-27T11:52:35.120Z,3.33
2018-12-27T11:55:06.016Z,4.87
2018-12-27T11:57:40.706Z,3.87
2018-12-27T12:00:12.114Z,4.20
2018-12-27T12:02:47.275Z,4.83
2018-12-27T12:05:19.251Z,4.47
2018-12-27T12:07:52.596Z,9.57
2018-12-27T12:10:24.702Z,2.90
2018-12-27T12:12:55.311Z,6.77
2018-12-27T12:15:26.090Z,3.80
2018-12-27T12:17:56.904Z,5.30
2018-12-27T12:20:42.630Z,2.60
2018-12-27T12:23:13.835Z,2.93
2018-12-27T12:25:50.277Z,2.67
2018-12-27T12:28:21.950Z,8.87
2018-12-27T12:30:56.693Z,4.50
2018-12-27T12:33:28.030Z,3.33
2018-12-27T12:35:58.756Z,2.37
2018-12-27T12:38:30.994Z,2.50
2018-12-27T12:41:02.186Z,2.33
2018-12-27T12:43:51.341Z,2.53
2018-12-27T12:46:35.880Z,6.60
2018-12-27T12:49:06.370Z,5.90
2018-12-27T12:51:36.828Z,2.83
2018-12-27T12:54:07.302Z,5.10
2018-12-27T12:56:38.105Z,4.43
2018-12-27T12:59:08.969Z,12.03
2018-12-27T13:01:46.417Z,3.90
2018-12-27T13:04:35.736Z,1.60
2018-12-27T13:07:24.585Z,2.70
2018-12-27T13:09:56.260Z,2.63
2018-12-27T13:12:26.760Z,3.23
2018-12-27T13:14:57.502Z,3.47
2018-12-27T13:17:27.987Z,7.37
2018-12-27T13:19:58.870Z,3.53
2018-12-27T13:22:29.853Z,5.13
2018-12-27T13:25:01.958Z,2.50
2018-12-27T13:27:36.164Z,5.30
2018-12-27T13:30:08.422Z,5.53
2018-12-27T13:32:42.603Z,7.33
2018-12-27T13:35:13.057Z,2.93
2018-12-27T13:37:48.173Z,4.47
2018-12-27T13:40:20.037Z,4.10
2018-12-27T13:42:52.173Z,2.50
2018-12-27T13:45:26.232Z,3.80
2018-12-27T13:48:00.460Z,2.57
2018-12-27T13:50:33.234Z,2.90
2018-12-27T13:53:21.434Z,2.30
2018-12-27T13:55:54.388Z,3.40
2018-12-27T13:58:24.937Z,3.20
2018-12-27T14:00:55.573Z,3.77
2018-12-27T14:03:26.471Z,4.90
2018-12-27T14:05:57.510Z,4.13
2018-12-27T14:08:33.460Z,5.40
2018-12-27T14:11:12.429Z,5.00
2018-12-27T14:13:45.192Z,6.77
2018-12-27T14:16:20.297Z,5.10
2018-12-27T14:18:56.814Z,5.30
2018-12-27T14:21:27.463Z,4.37
2018-12-27T14:23:58.677Z,5.63
2018-12-27T14:26:30.841Z,3.20
2018-12-27T14:29:02.772Z,3.00
2018-12-27T14:31:33.494Z,4.70
2018-12-27T14:34:12.598Z,2.80
2018-12-27T14:36:44.512Z,2.70
2018-12-27T14:39:18.284Z,2.17
2018-12-27T14:41:52.739Z,3.73
2018-12-27T14:44:30.968Z,2.23
2018-12-27T14:47:02.410Z,3.10
2018-12-27T14:49:37.433Z,3.60
2018-12-27T14:52:09.684Z,4.70
2018-12-27T14:54:40.548Z,4.50
2018-12-27T14:57:11.158Z,4.83
2018-12-27T14:59:46.857Z,5.40
2018-12-27T15:02:19.630Z,5.40
2018-12-27T15:05:08.292Z,6.00
2018-12-27T15:07:58.466Z,5.20
2018-12-27T15:10:49.524Z,5.37
2018-12-27T15:13:30.214Z,4.73
2018-12-27T15:16:04.125Z,2.53
2018-12-27T15:18:53.385Z,4.57
2018-12-27T15:21:26.128Z,4.20
2018-12-27T15:23:58.030Z,3.80
2018-12-27T15:26:29.725Z,4.33
2018-12-27T15:29:04.093Z,7.67
2018-12-27T15:31:35.107Z,5.03
2018-12-27T15:34:08.955Z,6.43
2018-12-27T15:36:43.056Z,9.30
2018-12-27T15:39:22.511Z,5.50
2018-12-27T15:41:56.648Z,6.83
2018-12-27T15:44:29.003Z,3.70
2018-12-27T15:47:07.499Z,3.30
2018-12-27T15:49:42.433Z,2.97
2018-12-27T15:52:13.919Z,3.33
2018-12-27T15:54:46.153Z,3.60
2018-12-27T15:57:18.967Z,4.87
2018-12-27T15:59:53.392Z,3.20
2018-12-27T16:02:27.082Z,3.10
2018-12-27T16:04:59.191Z,4.47
2018-12-27T16:07:29.769Z,6.20
2018-12-27T16:10:00.416Z,7.50
2018-12-27T16:12:30.947Z,5.00
2018-12-27T16:15:01.510Z,3.37
2018-12-27T16:17:32.501Z,5.23
2018-12-27T16:20:08.950Z,7.73
2018-12-27T16:22:57.678Z,3.40
2018-12-27T16:25:48.433Z,5.57
2018-12-27T16:28:22.007Z,8.13
2018-12-27T16:31:01.148Z,5.40
2018-12-27T16:33:39.179Z,10.93
2018-12-27T16:36:10.232Z,10.90
2018-12-27T16:38:47.969Z,8.00
2018-12-27T16:41:21.025Z,4.30
2018-12-27T16:43:54.472Z,6.40
2018-12-27T16:46:29.439Z,4.87
2018-12-27T16:49:15.003Z,5.50
2018-12-27T16:51:54.564Z,5.27
2018-12-27T16:54:48.969Z,4.73
2018-12-27T16:57:24.997Z,4.57
2018-12-27T17:00:00.422Z,8.67
2018-12-27T17:02:32.452Z,4.63
2018-12-27T17:05:07.159Z,5.23
2018-12-27T17:07:43.173Z,7.60
2018-12-27T17:10:17.210Z,8.30
2018-12-27T17:13:06.277Z,5.23
2018-12-27T17:15:44.762Z,8.20
2018-12-27T17:18:16.993Z,7.53
2018-12-27T17:20:55.038Z,14.30
2018-12-27T17:23:30.224Z,7.70
2018-12-27T17:26:10.352Z,6.47
2018-12-27T17:28:57.406Z,7.37
2018-12-27T17:31:53.942Z,8.37
2018-12-27T17:34:52.685Z,7.80
2018-12-27T17:38:16.508Z,15.47
2018-12-27T17:41:06.754Z,9.27
2018-12-27T17:43:55.737Z,9.03
2018-12-27T17:46:29.442Z,9.37
2018-12-27T17:49:03.365Z,9.13
2018-12-27T17:51:40.718Z,9.20
2018-12-27T17:54:13.692Z,8.33
2018-12-27T17:56:46.734Z,8.87
2018-12-27T17:59:37.512Z,9.40
2018-12-27T18:06:08.437Z,9.70
2018-12-27T18:08:44.362Z,9.47
2018-12-27T18:12:06.519Z,10.90
2018-12-27T18:14:39.739Z,10.20
2018-12-27T18:17:33.466Z,11.67
2018-12-27T18:20:15.250Z,10.10
2018-12-27T18:23:02.955Z,7.57
2018-12-27T18:25:58.251Z,11.10
2018-12-27T18:32:08.687Z,10.70
2018-12-27T18:35:15.001Z,11.07
2018-12-27T18:37:54.074Z,9.40
2018-12-27T18:40:51.490Z,10.13
2018-12-27T18:43:26.410Z,10.77
2018-12-27T18:45:57.900Z,8.00
2018-12-27T18:48:33.870Z,9.43
2018-12-27T18:51:29.352Z,10.27
2018-12-27T18:54:10.869Z,11.77
2018-12-27T18:56:45.186Z,11.10
2018-12-27T19:04:16.601Z,9.50
2018-12-27T19:07:09.716Z,5.90
2018-12-27T19:11:05.017Z,9.13
2018-12-27T19:18:36.744Z,5.77
2018-12-27T19:22:08.123Z,7.70
2018-12-27T19:25:08.753Z,6.60
2018-12-27T19:28:12.916Z,6.97
2018-12-27T19:31:11.043Z,6.97
2018-12-27T19:34:02.828Z,7.20
2018-12-27T19:36:49.999Z,8.67
2018-12-27T19:39:36.606Z,6.20
2018-12-27T19:42:23.075Z,7.73
2018-12-27T19:45:02.996Z,7.90
2018-12-27T19:47:52.551Z,7.50
2018-12-27T19:50:42.429Z,7.20
2018-12-27T19:53:38.406Z,7.53
2018-12-27T19:57:10.876Z,10.40
2018-12-27T20:05:14.022Z,7.23
2018-12-27T20:12:33.335Z,7.57
2018-12-27T20:15:22.596Z,6.57
2018-12-27T20:25:41.614Z,7.30
2018-12-27T20:29:12.709Z,8.50
2018-12-27T20:33:11.766Z,6.97
2018-12-27T20:36:05.370Z,6.07
2018-12-27T20:39:36.898Z,8.33
2018-12-27T20:43:01.555Z,16.30
2018-12-27T20:57:01.497Z,13.73
2018-12-27T21:11:33.653Z,9.30
2018-12-27T21:14:59.572Z,13.30
2018-12-27T21:41:19.926Z,11.07
2018-12-27T21:52:04.700Z,17.87
2018-12-27T21:55:03.511Z,14.47
2018-12-27T21:58:28.548Z,15.50
2018-12-27T22:02:12.311Z,18.20
2018-12-27T22:05:36.327Z,15.63
2018-12-27T22:08:49.993Z,17.20
2018-12-27T22:12:04.473Z,13.53
2018-12-27T22:15:35.833Z,15.80
2018-12-27T22:22:58.116Z,17.50
2018-12-27T22:26:26.899Z,17.47
2018-12-27T22:34:00.545Z,14.17
2018-12-27T22:37:38.519Z,18.77
2018-12-27T22:45:01.594Z,13.53
2018-12-27T22:48:52.717Z,12.13
2018-12-27T22:56:36.499Z,13.43
2018-12-27T23:04:20.906Z,15.50
2018-12-27T23:06:57.366Z,11.43
2018-12-27T23:09:30.436Z,12.90
2018-12-27T23:12:15.834Z,14.57
2018-12-27T23:15:16.492Z,12.50
2018-12-27T23:18:02.141Z,18.30
2018-12-27T23:20:36.040Z,11.50
2018-12-27T23:23:08.308Z,15.50
2018-12-27T23:25:45.288Z,11.47
2018-12-27T23:28:27.018Z,12.30
2018-12-27T23:30:59.954Z,13.37
2018-12-27T23:33:49.845Z,12.00
2018-12-27T23:36:24.551Z,13.30
2018-12-27T23:39:15.600Z,11.50
2018-12-27T23:42:16.723Z,12.73
2018-12-27T23:44:53.531Z,16.53
2018-12-27T23:47:34.567Z,13.33
2018-12-27T23:50:08.583Z,13.03
2018-12-27T23:52:46.087Z,12.30
2018-12-27T23:55:29.857Z,9.93
2018-12-27T23:58:15.374Z,10.63
